createdAt,value
2017-11-05T00:00:03.004Z,80.20
2017-11-05T00:02:29.387Z,80.20
2017-11-05T00:04:56.524Z,79.90
2017-11-05T00:07:22.936Z,79.90
2017-11-05T00:09:49.363Z,79.60
2017-11-05T00:12:15.746Z,79.90
2017-11-05T00:14:42.893Z,80.30
2017-11-05T00:17:10.017Z,79.60
2017-11-05T00:19:36.406Z,79.60
2017-11-05T00:22:02.805Z,79.70
2017-11-05T00:24:29.187Z,79.80
2017-11-05T00:26:55.575Z,80.50
2017-11-05T00:29:22.875Z,79.90
2017-11-05T00:31:49.285Z,79.80
2017-11-05T00:34:15.686Z,79.70
2017-11-05T00:36:42.086Z,80.10
2017-11-05T00:39:08.474Z,80.90
2017-11-05T00:41:34.879Z,79.60
2017-11-05T00:44:02.038Z,79.40
2017-11-05T00:46:29.162Z,79.50
2017-11-05T00:48:55.543Z,79.60
2017-11-05T00:51:21.939Z,80.10
2017-11-05T00:53:48.324Z,79.50
2017-11-05T00:56:14.737Z,78.80
2017-11-05T00:58:41.142Z,79.10
2017-11-05T01:01:08.263Z,78.20
2017-11-05T01:03:34.674Z,78.20
2017-11-05T01:06:01.064Z,78.60
2017-11-05T01:08:28.195Z,78.70
2017-11-05T01:10:54.583Z,78.60
2017-11-05T01:13:21.003Z,78.10
2017-11-05T01:15:47.408Z,78.60
2017-11-05T01:18:14.543Z,78.80
2017-11-05T01:20:40.940Z,78.80
2017-11-05T01:23:07.356Z,78.80
2017-11-05T01:25:33.746Z,79.30
2017-11-05T01:28:00.880Z,80.30
2017-11-05T01:30:27.292Z,79.80
2017-11-05T01:32:53.691Z,80.10
2017-11-05T01:35:20.098Z,80.70
2017-11-05T01:37:47.235Z,80.20
2017-11-05T01:40:13.640Z,80.20
2017-11-05T01:42:40.065Z,80.20
2017-11-05T01:45:06.518Z,80.20
2017-11-05T01:47:32.899Z,80.00
2017-11-05T01:49:59.285Z,79.50
2017-11-05T01:52:25.718Z,79.50
2017-11-05T01:54:52.138Z,79.50
2017-11-05T01:57:18.589Z,79.30
2017-11-05T01:59:45.753Z,78.90
2017-11-05T02:02:12.923Z,78.70
2017-11-05T02:04:40.102Z,79.00
2017-11-05T02:07:06.544Z,79.00
2017-11-05T02:09:32.988Z,79.40
2017-11-05T02:11:59.431Z,79.60
2017-11-05T02:14:27.349Z,79.50
2017-11-05T02:16:53.867Z,79.40
2017-11-05T02:19:21.028Z,79.10
2017-11-05T02:21:47.465Z,79.10
2017-11-05T02:24:14.667Z,79.50
2017-11-05T02:26:41.108Z,79.50
2017-11-05T02:29:09.031Z,80.50
2017-11-05T02:31:35.489Z,80.50
2017-11-05T02:34:01.943Z,80.80
2017-11-05T02:36:29.851Z,80.40
2017-11-05T02:38:56.260Z,80.40
2017-11-05T02:41:23.382Z,80.10
2017-11-05T02:43:49.808Z,80.00
2017-11-05T02:46:16.256Z,80.10
2017-11-05T02:48:42.699Z,80.50
2017-11-05T02:51:09.899Z,80.00
2017-11-05T02:53:36.319Z,80.00
2017-11-05T02:56:02.759Z,80.30
2017-11-05T02:58:30.096Z,80.40
2017-11-05T03:00:57.257Z,80.60
2017-11-05T03:03:23.722Z,80.60
2017-11-05T03:05:50.166Z,80.50
2017-11-05T03:08:16.587Z,80.50
2017-11-05T03:10:43.016Z,80.50
2017-11-05T03:13:09.454Z,80.20
2017-11-05T03:15:35.897Z,80.10
2017-11-05T03:18:02.344Z,80.30
2017-11-05T03:20:28.805Z,80.50
2017-11-05T03:22:55.975Z,80.40
2017-11-05T03:25:22.412Z,80.40
2017-11-05T03:27:48.884Z,80.20
2017-11-05T03:30:15.320Z,80.30
2017-11-05T03:32:41.784Z,80.50
2017-11-05T03:35:08.977Z,80.80
2017-11-05T03:37:35.427Z,80.80
2017-11-05T03:40:01.883Z,82.60
2017-11-05T03:42:29.062Z,82.90
2017-11-05T03:44:56.215Z,81.80
2017-11-05T03:47:23.435Z,80.90
2017-11-05T03:49:49.907Z,80.90
2017-11-05T03:52:16.320Z,81.10
2017-11-05T03:54:43.470Z,81.30
2017-11-05T03:57:10.679Z,80.70
2017-11-05T03:59:37.067Z,80.60
2017-11-05T04:02:03.531Z,80.60
2017-11-05T04:04:29.992Z,80.80
2017-11-05T04:06:57.967Z,80.70
2017-11-05T04:09:25.875Z,81.00
2017-11-05T04:11:52.303Z,80.90
2017-11-05T04:14:18.751Z,81.00
2017-11-05T04:16:45.204Z,80.90
2017-11-05T04:19:11.645Z,80.80
2017-11-05T04:21:38.094Z,81.10
2017-11-05T04:24:04.515Z,81.20
2017-11-05T04:26:30.933Z,81.00
2017-11-05T04:28:57.372Z,81.60
2017-11-05T04:31:23.808Z,82.10
2017-11-05T04:33:50.235Z,82.20
2017-11-05T04:36:16.663Z,81.90
2017-11-05T04:38:43.083Z,81.70
2017-11-05T04:41:09.527Z,81.80
2017-11-05T04:43:35.942Z,81.90
2017-11-05T04:46:02.367Z,81.60
2017-11-05T04:48:29.055Z,81.50
2017-11-05T04:50:55.503Z,81.60
2017-11-05T04:53:23.387Z,80.40
2017-11-05T04:55:50.579Z,80.50
2017-11-05T04:58:17.036Z,80.50
2017-11-05T05:00:43.447Z,80.70
2017-11-05T05:03:09.892Z,80.80
2017-11-05T05:05:36.374Z,80.90
2017-11-05T05:08:02.818Z,80.70
2017-11-05T05:10:29.280Z,80.30
2017-11-05T05:12:55.725Z,80.70
2017-11-05T05:15:22.155Z,80.70
2017-11-05T05:17:48.614Z,81.70
2017-11-05T05:20:16.527Z,81.60
2017-11-05T05:22:42.950Z,81.50
2017-11-05T05:25:10.136Z,81.70
2017-11-05T05:27:36.572Z,81.90
2017-11-05T05:30:02.983Z,81.50
2017-11-05T05:32:29.458Z,81.60
2017-11-05T05:34:55.896Z,80.80
2017-11-05T05:37:22.333Z,80.70
2017-11-05T05:39:49.504Z,80.70
2017-11-05T05:42:16.666Z,80.80
2017-11-05T05:44:43.104Z,80.80
2017-11-05T05:47:09.533Z,80.60
2017-11-05T05:49:35.965Z,80.60
2017-11-05T05:52:02.406Z,80.90
2017-11-05T05:54:28.827Z,81.70
2017-11-05T05:56:55.234Z,81.80
2017-11-05T05:59:22.425Z,82.70
2017-11-05T06:01:48.846Z,82.80
2017-11-05T06:04:16.019Z,82.00
2017-11-05T06:06:42.460Z,82.00
2017-11-05T06:09:08.901Z,81.40
2017-11-05T06:11:35.319Z,81.00
2017-11-05T06:14:01.780Z,80.90
2017-11-05T06:16:28.223Z,82.30
2017-11-05T06:18:55.414Z,81.90
2017-11-05T06:21:22.591Z,82.70
2017-11-05T06:23:49.026Z,82.60
2017-11-05T06:26:15.481Z,84.70
2017-11-05T06:28:42.143Z,84.40
2017-11-05T06:31:09.298Z,83.60
2017-11-05T06:33:36.461Z,84.10
2017-11-05T06:36:03.635Z,84.50
2017-11-05T06:38:30.067Z,84.50
2017-11-05T06:40:56.510Z,84.20
2017-11-05T06:43:22.959Z,84.60
2017-11-05T06:45:49.396Z,83.70
2017-11-05T06:48:15.819Z,82.60
2017-11-05T06:50:42.248Z,82.80
2017-11-05T06:53:08.692Z,82.50
2017-11-05T06:55:35.124Z,83.50
2017-11-05T06:58:01.568Z,84.00
2017-11-05T07:00:28.004Z,83.60
2017-11-05T07:02:54.500Z,84.00
2017-11-05T07:05:20.921Z,84.30
2017-11-05T07:07:47.367Z,83.50
2017-11-05T07:10:19.703Z,82.40
2017-11-05T07:12:46.876Z,82.30
2017-11-05T07:15:13.293Z,82.30
2017-11-05T07:17:40.448Z,81.60
2017-11-05T07:20:07.602Z,83.10
2017-11-05T07:22:34.037Z,83.10
2017-11-05T07:25:00.488Z,82.50
2017-11-05T07:27:26.952Z,82.60
2017-11-05T07:29:53.592Z,82.90
2017-11-05T07:32:20.016Z,81.90
2017-11-05T07:34:46.456Z,81.80
2017-11-05T07:37:12.874Z,82.30
2017-11-05T07:39:39.294Z,82.30
2017-11-05T07:42:05.729Z,81.10
2017-11-05T07:44:32.162Z,81.10
2017-11-05T07:46:58.610Z,82.10
2017-11-05T07:49:25.065Z,84.30
2017-11-05T07:51:52.985Z,87.40
2017-11-05T07:54:19.905Z,87.30
2017-11-05T07:56:47.072Z,85.80
2017-11-05T07:59:13.520Z,85.80
2017-11-05T08:01:39.963Z,84.30
2017-11-05T08:04:06.423Z,85.00
2017-11-05T08:06:32.889Z,84.50
2017-11-05T08:08:59.337Z,85.50
2017-11-05T08:11:25.862Z,85.70
2017-11-05T08:13:53.040Z,85.00
2017-11-05T08:16:19.438Z,84.90
2017-11-05T08:18:46.632Z,85.00
2017-11-05T08:21:13.068Z,85.00
2017-11-05T08:23:39.499Z,84.80
2017-11-05T08:26:05.997Z,85.10
2017-11-05T08:28:32.415Z,84.10
2017-11-05T08:30:58.874Z,84.00
2017-11-05T08:33:25.351Z,83.20
2017-11-05T08:35:51.788Z,83.40
2017-11-05T08:38:18.230Z,83.60
2017-11-05T08:40:44.645Z,84.40
2017-11-05T08:43:11.085Z,84.30
2017-11-05T08:45:37.502Z,83.00
2017-11-05T08:48:04.013Z,81.80
2017-11-05T08:50:30.429Z,82.20
2017-11-05T08:52:57.584Z,83.30
2017-11-05T08:55:23.976Z,83.30
2017-11-05T08:57:51.144Z,85.90
2017-11-05T09:00:17.549Z,85.80
2017-11-05T09:02:43.991Z,85.30
2017-11-05T09:05:10.408Z,86.30
2017-11-05T09:07:36.837Z,86.00
2017-11-05T09:10:03.253Z,85.60
2017-11-05T09:12:29.698Z,87.00
2017-11-05T09:14:56.156Z,86.30
2017-11-05T09:17:24.092Z,86.50
2017-11-05T09:19:50.498Z,86.50
2017-11-05T09:22:17.665Z,85.40
2017-11-05T09:24:44.096Z,85.40
2017-11-05T09:27:10.509Z,85.20
2017-11-05T09:29:36.886Z,84.80
2017-11-05T09:32:03.347Z,83.90
2017-11-05T09:34:30.492Z,83.40
2017-11-05T09:36:56.864Z,83.90
2017-11-05T09:39:23.280Z,84.20
2017-11-05T09:41:49.680Z,83.20
2017-11-05T09:44:17.571Z,82.40
2017-11-05T09:46:44.708Z,82.40
2017-11-05T09:49:11.831Z,84.60
2017-11-05T09:51:38.247Z,84.60
2017-11-05T09:54:04.989Z,87.10
2017-11-05T09:56:31.393Z,88.00
2017-11-05T09:58:57.792Z,87.80
2017-11-05T10:01:24.183Z,87.70
2017-11-05T10:03:50.589Z,86.60
2017-11-05T10:06:16.999Z,85.70
2017-11-05T10:08:44.138Z,86.90
2017-11-05T10:11:10.537Z,86.90
2017-11-05T10:13:36.934Z,87.80
2017-11-05T10:16:03.316Z,86.20
2017-11-05T10:18:29.722Z,85.60
2017-11-05T10:20:56.133Z,86.10
2017-11-05T10:23:22.576Z,86.60
2017-11-05T10:25:48.971Z,87.80
2017-11-05T10:28:15.385Z,88.30
2017-11-05T10:30:41.791Z,88.50
2017-11-05T10:33:08.225Z,88.20
2017-11-05T10:35:34.627Z,87.90
2017-11-05T10:38:01.049Z,88.40
2017-11-05T10:40:28.207Z,87.90
2017-11-05T10:42:54.643Z,87.80
2017-11-05T10:45:21.071Z,87.30
2017-11-05T10:47:47.453Z,86.80
2017-11-05T10:50:13.859Z,85.20
2017-11-05T10:52:40.302Z,84.90
2017-11-05T10:55:08.227Z,84.70
2017-11-05T10:57:35.448Z,85.40
2017-11-05T11:00:03.379Z,85.30
2017-11-05T11:02:29.781Z,85.20
2017-11-05T11:04:56.778Z,85.80
2017-11-05T11:07:23.184Z,85.90
2017-11-05T11:09:50.913Z,87.60
2017-11-05T11:12:18.231Z,86.90
2017-11-05T11:14:44.595Z,86.90
2017-11-05T11:17:11.723Z,87.80
2017-11-05T11:19:39.606Z,88.10
2017-11-05T11:22:05.988Z,88.00
2017-11-05T11:24:32.384Z,88.10
2017-11-05T11:26:59.540Z,88.20
2017-11-05T11:29:25.960Z,87.60
2017-11-05T11:31:53.092Z,87.10
2017-11-05T11:34:19.485Z,87.00
2017-11-05T11:36:45.881Z,87.70
2017-11-05T11:39:13.021Z,86.70
2017-11-05T11:41:40.171Z,85.30
2017-11-05T11:44:07.323Z,84.60
2017-11-05T11:46:34.457Z,84.60
2017-11-05T11:49:00.851Z,84.50
2017-11-05T11:51:27.260Z,85.30
2017-11-05T11:53:53.659Z,85.20
2017-11-05T11:56:20.053Z,84.00
2017-11-05T11:58:46.448Z,82.90
2017-11-05T12:01:12.895Z,83.50
2017-11-05T12:03:39.302Z,84.10
2017-11-05T12:06:06.540Z,83.30
2017-11-05T12:08:32.960Z,83.30
2017-11-05T12:10:59.399Z,85.20
2017-11-05T12:13:27.294Z,85.20
2017-11-05T12:15:53.687Z,85.20
2017-11-05T12:18:20.052Z,85.00
2017-11-05T12:20:47.181Z,85.00
2017-11-05T12:23:13.567Z,85.00
2017-11-05T12:25:39.943Z,86.40
2017-11-05T12:28:07.850Z,86.70
2017-11-05T12:30:34.318Z,86.70
2017-11-05T12:33:00.731Z,87.50
2017-11-05T12:35:27.190Z,87.60
2017-11-05T12:37:53.604Z,86.50
2017-11-05T12:40:20.058Z,84.90
2017-11-05T12:42:46.469Z,83.70
2017-11-05T12:45:12.890Z,82.70
2017-11-05T12:47:39.354Z,81.10
2017-11-05T12:50:05.786Z,81.20
2017-11-05T12:52:32.223Z,81.40
2017-11-05T12:54:59.375Z,82.80
2017-11-05T12:57:25.883Z,82.80
2017-11-05T12:59:52.325Z,83.30
2017-11-05T13:02:18.769Z,82.00
2017-11-05T13:04:46.676Z,81.90
2017-11-05T13:07:13.804Z,80.80
2017-11-05T13:09:40.952Z,81.50
2017-11-05T13:12:08.844Z,82.80
2017-11-05T13:14:35.986Z,82.60
2017-11-05T13:17:02.424Z,82.60
2017-11-05T13:19:29.569Z,82.40
2017-11-05T13:21:56.693Z,82.90
2017-11-05T13:24:23.114Z,82.90
2017-11-05T13:26:49.609Z,82.70
2017-11-05T13:29:16.007Z,83.60
2017-11-05T13:31:42.423Z,83.40
2017-11-05T13:34:08.817Z,83.00
2017-11-05T13:36:35.239Z,82.90
2017-11-05T13:39:02.635Z,83.70
2017-11-05T13:41:29.042Z,83.80
2017-11-05T13:43:56.253Z,82.20
2017-11-05T13:46:23.441Z,81.70
2017-11-05T13:48:49.965Z,81.30
2017-11-05T13:51:16.554Z,80.60
2017-11-05T13:53:42.964Z,80.80
2017-11-05T13:56:09.394Z,80.00
2017-11-05T13:58:35.800Z,80.90
2017-11-05T14:01:02.199Z,82.50
2017-11-05T14:03:28.642Z,82.20
2017-11-05T14:05:55.032Z,82.10
2017-11-05T14:08:22.225Z,81.80
2017-11-05T14:10:49.350Z,83.30
2017-11-05T14:13:15.756Z,83.40
2017-11-05T14:15:42.171Z,82.50
2017-11-05T14:18:08.597Z,83.20
2017-11-05T14:20:35.081Z,83.40
2017-11-05T14:23:01.503Z,83.40
2017-11-05T14:25:27.892Z,82.20
2017-11-05T14:27:55.025Z,83.40
2017-11-05T14:30:22.188Z,83.50
2017-11-05T14:32:48.590Z,83.50
2017-11-05T14:35:14.979Z,83.20
2017-11-05T14:37:41.371Z,83.80
2017-11-05T14:40:07.802Z,84.90
2017-11-05T14:42:34.235Z,83.80
2017-11-05T14:45:01.412Z,83.00
2017-11-05T14:47:27.991Z,83.00
2017-11-05T14:49:54.883Z,82.00
2017-11-05T14:52:21.348Z,81.60
2017-11-05T14:54:47.782Z,81.30
2017-11-05T14:57:14.833Z,80.80
2017-11-05T14:59:41.318Z,80.60
2017-11-05T15:02:08.503Z,80.60
2017-11-05T15:04:34.961Z,80.60
2017-11-05T15:07:01.367Z,79.40
2017-11-05T15:09:27.757Z,78.70
2017-11-05T15:11:54.936Z,78.60
2017-11-05T15:14:21.395Z,78.60
2017-11-05T15:16:47.813Z,78.30
2017-11-05T15:19:14.234Z,78.10
2017-11-05T15:21:40.677Z,78.50
2017-11-05T15:24:07.101Z,77.80
2017-11-05T15:26:33.533Z,77.90
2017-11-05T15:28:59.997Z,77.50
2017-11-05T15:31:26.427Z,77.50
2017-11-05T15:33:52.867Z,77.40
2017-11-05T15:36:19.289Z,77.50
2017-11-05T15:38:45.743Z,77.70
2017-11-05T15:41:12.158Z,77.90
2017-11-05T15:43:38.621Z,78.00
2017-11-05T15:46:06.608Z,78.00
2017-11-05T15:48:33.815Z,78.10
2017-11-05T15:51:00.319Z,78.10
2017-11-05T15:53:26.829Z,78.70
2017-11-05T15:55:54.016Z,78.50
2017-11-05T15:58:20.506Z,78.40
2017-11-05T16:00:47.707Z,77.80
2017-11-05T16:03:14.117Z,78.90
2017-11-05T16:05:40.540Z,77.90
2017-11-05T16:08:07.694Z,78.00
2017-11-05T16:10:34.109Z,78.00
2017-11-05T16:13:00.536Z,77.90
2017-11-05T16:15:26.950Z,79.80
2017-11-05T16:17:53.440Z,80.90
2017-11-05T16:20:19.896Z,78.30
2017-11-05T16:22:46.310Z,79.80
2017-11-05T16:25:12.736Z,80.20
2017-11-05T16:27:39.133Z,80.30
2017-11-05T16:30:05.563Z,80.50
2017-11-05T16:32:31.947Z,79.90
2017-11-05T16:34:58.389Z,79.90
2017-11-05T16:37:24.836Z,79.70
2017-11-05T16:39:51.479Z,80.40
2017-11-05T16:42:17.888Z,80.60
2017-11-05T16:44:44.290Z,80.20
2017-11-05T16:47:11.428Z,79.40
2017-11-05T16:49:38.578Z,79.10
2017-11-05T16:52:05.699Z,78.80
2017-11-05T16:54:32.106Z,78.80
2017-11-05T16:56:58.525Z,79.30
2017-11-05T16:59:24.951Z,79.30
2017-11-05T17:01:51.353Z,79.10
2017-11-05T17:04:18.553Z,77.40
2017-11-05T17:06:44.972Z,77.30
2017-11-05T17:09:11.392Z,77.10
2017-11-05T17:11:37.817Z,77.10
2017-11-05T17:14:04.287Z,77.30
2017-11-05T17:16:30.725Z,77.20
2017-11-05T17:18:57.166Z,77.30
2017-11-05T17:21:23.599Z,77.00
2017-11-05T17:23:50.112Z,76.80
2017-11-05T17:26:16.607Z,76.80
2017-11-05T17:28:43.800Z,76.60
2017-11-05T17:31:10.266Z,76.60
2017-11-05T17:33:36.724Z,76.60
2017-11-05T17:36:03.899Z,77.00
2017-11-05T17:38:30.343Z,77.00
2017-11-05T17:40:56.723Z,77.10
2017-11-05T17:43:23.885Z,77.60
2017-11-05T17:45:51.036Z,77.50
2017-11-05T17:48:18.185Z,77.30
2017-11-05T17:50:45.367Z,76.90
2017-11-05T17:53:11.775Z,76.80
2017-11-05T17:55:38.940Z,76.60
2017-11-05T17:58:05.340Z,76.60
2017-11-05T18:00:31.787Z,76.10
2017-11-05T18:02:58.935Z,76.10
2017-11-05T18:05:26.078Z,76.40
2017-11-05T18:07:52.485Z,76.40
2017-11-05T18:10:18.884Z,76.10
2017-11-05T18:12:45.317Z,76.30
2017-11-05T18:15:11.731Z,76.90
2017-11-05T18:17:38.922Z,77.60
2017-11-05T18:20:05.355Z,77.60
2017-11-05T18:22:31.756Z,77.30
2017-11-05T18:24:58.539Z,77.30
2017-11-05T18:27:26.428Z,79.60
2017-11-05T18:29:53.591Z,78.50
2017-11-05T18:32:20.740Z,78.40
2017-11-05T18:34:47.898Z,80.00
2017-11-05T18:37:15.070Z,78.30
2017-11-05T18:39:41.472Z,78.30
2017-11-05T18:42:08.672Z,78.20
2017-11-05T18:44:35.084Z,78.20
2017-11-05T18:47:01.509Z,78.10
2017-11-05T18:49:27.915Z,78.10
2017-11-05T18:51:55.058Z,77.90
2017-11-05T18:54:22.220Z,78.30
2017-11-05T18:56:49.377Z,78.10
2017-11-05T18:59:15.828Z,78.10
2017-11-05T19:01:42.278Z,79.50
2017-11-05T19:04:08.707Z,79.40
2017-11-05T19:06:35.372Z,79.00
2017-11-05T19:09:01.784Z,79.00
2017-11-05T19:11:28.178Z,78.90
2017-11-05T19:13:54.621Z,79.20
2017-11-05T19:16:21.069Z,79.00
2017-11-05T19:18:47.490Z,78.80
2017-11-05T19:21:13.913Z,77.80
2017-11-05T19:23:41.045Z,77.80
2017-11-05T19:26:08.171Z,77.70
2017-11-05T19:28:34.565Z,77.70
2017-11-05T19:31:00.971Z,77.90
2017-11-05T19:33:28.205Z,79.50
2017-11-05T19:35:54.587Z,79.50
2017-11-05T19:38:20.980Z,78.20
2017-11-05T19:40:48.125Z,78.20
2017-11-05T19:43:15.247Z,78.00
2017-11-05T19:45:41.648Z,78.70
2017-11-05T19:48:08.046Z,77.70
2017-11-05T19:50:35.175Z,79.20
2017-11-05T19:53:03.044Z,79.20
2017-11-05T19:55:30.209Z,79.40
2017-11-05T19:57:57.319Z,79.10
2017-11-05T20:00:23.754Z,79.10
2017-11-05T20:02:50.196Z,79.20
2017-11-05T20:05:16.599Z,79.60
2017-11-05T20:07:42.996Z,79.90
2017-11-05T20:10:10.148Z,79.80
2017-11-05T20:12:37.286Z,79.40
2017-11-05T20:15:03.733Z,79.40
2017-11-05T20:17:30.889Z,79.70
2017-11-05T20:19:57.257Z,79.70
2017-11-05T20:22:23.655Z,80.10
2017-11-05T20:24:50.778Z,82.50
2017-11-05T20:27:17.168Z,82.50
2017-11-05T20:29:43.545Z,82.90
2017-11-05T20:32:09.927Z,82.90
2017-11-05T20:34:36.301Z,82.40
2017-11-05T20:37:04.163Z,81.90
2017-11-05T20:39:30.557Z,81.90
2017-11-05T20:41:56.949Z,81.60
2017-11-05T20:44:24.073Z,82.10
2017-11-05T20:46:50.469Z,82.00
2017-11-05T20:49:16.870Z,82.00
2017-11-05T20:51:43.264Z,81.90
2017-11-05T20:54:10.439Z,80.80
2017-11-05T20:56:37.621Z,79.90
2017-11-05T20:59:04.025Z,79.80
2017-11-05T21:01:31.176Z,78.00
2017-11-05T21:03:58.308Z,77.70
2017-11-05T21:06:25.502Z,77.70
2017-11-05T21:08:51.901Z,78.20
2017-11-05T21:11:19.040Z,78.10
2017-11-05T21:13:45.417Z,78.00
2017-11-05T21:16:11.833Z,79.40
2017-11-05T21:18:38.247Z,80.80
2017-11-05T21:21:04.679Z,82.00
2017-11-05T21:23:31.822Z,82.80
2017-11-05T21:25:58.950Z,83.30
2017-11-05T21:28:25.355Z,83.30
2017-11-05T21:30:51.723Z,83.90
2017-11-05T21:33:18.095Z,83.30
2017-11-05T21:35:44.487Z,82.40
2017-11-05T21:38:12.379Z,80.60
2017-11-05T21:40:39.492Z,80.70
2017-11-05T21:43:05.872Z,80.70
2017-11-05T21:45:33.011Z,80.30
2017-11-05T21:48:00.127Z,80.60
2017-11-05T21:50:26.511Z,80.40
2017-11-05T21:52:52.905Z,80.70
2017-11-05T21:55:20.763Z,80.70
2017-11-05T21:57:47.146Z,80.70
2017-11-05T22:00:13.569Z,80.20
2017-11-05T22:02:39.967Z,80.80
2017-11-05T22:05:06.398Z,80.50
2017-11-05T22:07:32.768Z,78.80
2017-11-05T22:09:59.139Z,78.50
2017-11-05T22:12:25.556Z,80.60
2017-11-05T22:14:51.997Z,80.10
2017-11-05T22:17:18.375Z,79.00
2017-11-05T22:19:45.491Z,79.00
2017-11-05T22:22:11.982Z,79.00
2017-11-05T22:24:38.433Z,80.10
2017-11-05T22:27:04.846Z,80.50
2017-11-05T22:29:31.245Z,81.10
2017-11-05T22:31:57.632Z,81.50
2017-11-05T22:34:24.015Z,81.00
2017-11-05T22:36:51.154Z,78.80
2017-11-05T22:39:19.020Z,79.40
2017-11-05T22:41:45.450Z,80.30
2017-11-05T22:44:11.851Z,80.40
2017-11-05T22:46:38.400Z,80.40
2017-11-05T22:49:04.763Z,80.60
2017-11-05T22:51:31.152Z,80.80
2017-11-05T22:53:57.533Z,80.60
2017-11-05T22:56:23.972Z,80.60
2017-11-05T22:58:51.130Z,79.30
2017-11-05T23:01:18.293Z,80.30
2017-11-05T23:03:44.683Z,80.30
2017-11-05T23:06:11.077Z,80.70
2017-11-05T23:08:37.475Z,81.40
2017-11-05T23:11:04.604Z,81.10
2017-11-05T23:13:31.781Z,81.30
2017-11-05T23:15:58.172Z,81.30
2017-11-05T23:18:26.041Z,81.50
2017-11-05T23:20:53.941Z,81.20
2017-11-05T23:23:21.056Z,81.00
2017-11-05T23:25:48.175Z,80.40
2017-11-05T23:28:14.832Z,80.40
2017-11-05T23:30:41.240Z,80.10
2017-11-05T23:33:07.645Z,79.60
2017-11-05T23:35:34.036Z,79.80
2017-11-05T23:38:00.406Z,79.70
2017-11-05T23:40:27.561Z,79.40
2017-11-05T23:42:53.961Z,79.40
2017-11-05T23:45:20.424Z,78.90
2017-11-05T23:47:47.555Z,78.80
2017-11-05T23:50:14.688Z,78.80
2017-11-05T23:52:41.812Z,78.60
2017-11-05T23:55:08.206Z,78.60
2017-11-05T23:57:34.578Z,78.30
